Time;durP1;ratioP1;P1;durP2;ratioP2;P2;SDS_P1;SDS_P2;PMS_P1;PMS_P2;Temp;Humidity;BMP_temperature;BMP_pressure;BME280_temperature;BME280_humidity;BME280_pressure;Samples;Min_cycle;Max_cycle;Signal;HPM_P1;HPM_P2
2023/07/14 00:01:47;;;;;;;;;13.00;13.00;;;;;30.51;29.58;100917.28;5057394;28;45508;-67
2023/07/14 00:04:16;;;;;;;;;11.25;10.50;;;;;30.62;29.38;100921.47;5058032;28;45446;-69
2023/07/14 00:06:45;;;;;;;;;13.25;13.25;;;;;30.64;29.37;100917.50;5059024;28;45335;-68
2023/07/14 00:09:28;;;;;;;;;18.75;18.25;;;;;30.60;29.64;100910.78;5040141;28;45193;-67
2023/07/14 00:11:54;;;;;;;;;22.25;22.25;;;;;30.56;29.61;100909.44;5058187;28;45567;-67
2023/07/14 00:14:20;;;;;;;;;20.75;20.75;;;;;30.48;29.47;100898.66;5057115;28;45345;-68
2023/07/14 00:16:45;;;;;;;;;22.50;22.50;;;;;30.37;29.61;100903.53;5057307;28;45960;-68
2023/07/14 00:19:16;;;;;;;;;22.75;22.75;;;;;30.43;29.64;100908.22;5057198;28;45478;-68
2023/07/14 00:21:43;;;;;;;;;27.50;26.50;;;;;30.43;29.92;100901.97;5057063;28;45308;-68
2023/07/14 00:24:14;;;;;;;;;22.00;22.00;;;;;30.42;30.17;100900.28;5057148;28;46551;-69
2023/07/14 00:26:40;;;;;;;;;24.00;24.00;;;;;30.30;30.18;100889.88;5056833;28;45376;-67
2023/07/14 00:29:21;;;;;;;;;22.00;21.00;;;;;30.39;29.81;100904.19;5057824;28;45304;-70
2023/07/14 00:31:46;;;;;;;;;17.25;17.25;;;;;30.26;30.19;100898.56;5057909;28;45390;-70
2023/07/14 00:34:11;;;;;;;;;15.00;15.00;;;;;30.22;30.28;100891.81;5056087;28;45926;-67
2023/07/14 00:36:37;;;;;;;;;11.75;11.25;;;;;30.16;30.31;100893.38;5056213;28;53906;-70
2023/07/14 00:39:02;;;;;;;;;13.75;13.75;;;;;30.28;30.23;100891.94;5038056;28;56867;-68
2023/07/14 00:41:27;;;;;;;;;13.25;13.25;;;;;30.24;30.19;100889.75;5057030;28;45444;-67
2023/07/14 00:43:53;;;;;;;;;14.50;14.50;;;;;30.25;29.86;100886.88;5056629;28;46026;-68
2023/07/14 00:46:25;;;;;;;;;13.75;13.50;;;;;30.35;30.70;100888.47;5057005;28;44865;-69
2023/07/14 00:48:55;;;;;;;;;13.00;13.00;;;;;30.35;30.05;100893.91;5057071;28;45223;-70
2023/07/14 00:51:22;;;;;;;;;14.75;14.25;;;;;30.33;30.64;100887.81;5057151;28;45294;-68
2023/07/14 00:53:48;;;;;;;;;14.50;14.25;;;;;30.36;30.54;100879.31;5056395;28;47321;-69
2023/07/14 00:56:14;;;;;;;;;14.00;14.00;;;;;30.41;30.45;100882.31;5038125;28;45421;-68
2023/07/14 00:58:42;;;;;;;;;12.75;12.75;;;;;30.44;30.21;100881.94;5056131;28;45328;-68
2023/07/14 01:01:12;;;;;;;;;12.25;12.25;;;;;30.48;30.38;100879.66;5056377;28;44829;-68
2023/07/14 01:03:40;;;;;;;;;9.75;9.75;;;;;30.49;30.02;100875.94;5056149;28;45309;-71
2023/07/14 01:06:10;;;;;;;;;12.00;12.00;;;;;30.50;30.01;100872.19;5055981;28;45336;-68
2023/07/14 01:08:58;;;;;;;;;8.75;8.75;;;;;30.46;29.71;100853.56;5056021;28;45479;-68
2023/07/14 01:11:28;;;;;;;;;12.00;12.00;;;;;30.50;29.83;100864.03;5056538;28;45635;-71
2023/07/14 01:13:55;;;;;;;;;12.00;11.00;;;;;30.42;30.17;100863.09;5055867;28;45609;-69
2023/07/14 01:16:21;;;;;;;;;9.25;9.25;;;;;30.34;30.56;100860.47;5038197;28;45289;-69
2023/07/14 01:18:48;;;;;;;;;10.50;10.50;;;;;30.35;30.13;100856.75;5056070;28;45363;-67
2023/07/14 01:21:15;;;;;;;;;11.00;11.00;;;;;30.28;30.38;100855.78;5056972;28;45477;-68
2023/07/14 01:24:00;;;;;;;;;10.75;10.00;;;;;30.36;30.25;100852.16;5057269;28;45343;-68
2023/07/14 01:26:33;;;;;;;;;11.00;11.00;;;;;30.30;30.59;100851.88;5056656;28;45581;-68
2023/07/14 01:28:59;;;;;;;;;9.25;9.25;;;;;30.15;30.57;100837.44;5056385;28;45350;-67
2023/07/14 01:31:24;;;;;;;;;9.00;9.00;;;;;30.15;29.77;100849.16;5056451;28;45315;-69
2023/07/14 01:33:56;;;;;;;;;10.50;10.50;;;;;30.18;30.43;100839.78;5056162;28;47005;-70
2023/07/14 01:36:24;;;;;;;;;12.00;12.00;;;;;30.17;30.33;100825.38;5055780;28;45280;-68
2023/07/14 01:38:51;;;;;;;;;10.25;10.25;;;;;30.12;30.59;100832.38;5056134;28;45347;-68
2023/07/14 01:41:16;;;;;;;;;11.25;11.25;;;;;30.03;31.05;100821.63;5055856;28;45606;-68
2023/07/14 01:43:43;;;;;;;;;10.25;10.25;;;;;30.09;30.24;100827.31;5020620;28;45384;-69
2023/07/14 01:46:15;;;;;;;;;14.00;14.00;;;;;30.12;30.46;100833.25;5055682;28;45453;-69
2023/07/14 01:49:15;;;;;;;;;20.00;20.00;;;;;30.14;30.64;100823.03;5058884;28;45238;-68
2023/07/14 01:51:43;;;;;;;;;30.00;28.25;;;;;30.07;30.66;100824.81;5056221;28;45316;-67
2023/07/14 01:54:32;;;;;;;;;31.75;30.75;;;;;30.13;30.47;100828.63;5055408;28;46573;-69
2023/07/14 01:57:01;;;;;;;;;28.25;28.25;;;;;30.04;30.60;100825.19;5055478;28;45473;-69
2023/07/14 01:59:32;;;;;;;;;28.25;27.25;;;;;30.04;30.82;100817.06;5055553;28;45273;-69
2023/07/14 02:02:00;;;;;;;;;27.25;27.25;;;;;29.98;30.44;100813.16;5055715;28;45327;-68
2023/07/14 02:04:29;;;;;;;;;22.25;22.25;;;;;29.91;30.66;100809.50;5055522;28;45440;-68
2023/07/14 02:06:58;;;;;;;;;20.75;19.75;;;;;29.87;30.49;100809.03;5055783;28;45222;-68
2023/07/14 02:09:25;;;;;;;;;21.75;21.75;;;;;29.87;31.29;100809.03;5056118;28;45417;-69
2023/07/14 02:11:55;;;;;;;;;19.25;19.25;;;;;29.90;31.13;100813.25;5055666;28;45393;-70
2023/07/14 02:14:24;;;;;;;;;17.00;17.00;;;;;29.86;31.45;100806.50;5055095;28;46354;-69
2023/07/14 02:16:51;;;;;;;;;19.00;19.00;;;;;29.80;30.97;100812.66;5037310;28;45394;-69
2023/07/14 02:19:24;;;;;;;;;19.00;19.00;;;;;29.81;31.20;100815.22;5055258;28;45522;-69
2023/07/14 02:21:51;;;;;;;;;24.75;24.75;;;;;29.70;31.03;100812.94;5037072;28;45394;-69
2023/07/14 02:24:20;;;;;;;;;30.25;28.75;;;;;29.70;31.11;100810.22;5055198;28;45402;-68
2023/07/14 02:26:51;;;;;;;;;26.50;25.75;;;;;29.69;30.95;100811.22;5055187;28;45182;-69
2023/07/14 02:29:16;;;;;;;;;40.50;35.50;;;;;29.59;31.61;100809.59;5055035;28;45322;-67
2023/07/14 02:31:50;;;;;;;;;52.50;42.50;;;;;29.58;31.22;100810.63;5055398;28;45308;-68
2023/07/14 02:34:16;;;;;;;;;48.50;40.75;;;;;29.50;31.41;100802.56;5055071;28;46043;-68
2023/07/14 02:36:55;;;;;;;;;44.00;36.75;;;;;29.60;31.68;100807.75;5037263;28;45314;-68
2023/07/14 02:39:21;;;;;;;;;44.50;37.75;;;;;29.48;31.26;100811.91;5055241;28;45371;-67
2023/07/14 02:41:48;;;;;;;;;7.25;6.25;;;;;29.45;31.26;100804.97;5055339;28;45525;-68
2023/07/14 02:44:15;;;;;;;;;26.50;26.50;;;;;29.41;31.38;100799.09;5054824;28;45473;-67
2023/07/14 02:46:49;;;;;;;;;12.00;12.00;;;;;29.37;31.47;100796.88;5036720;28;45533;-68
2023/07/14 02:49:15;;;;;;;;;25.25;25.00;;;;;29.28;32.09;100801.53;5058419;28;45260;-69
2023/07/14 02:51:40;;;;;;;;;26.75;26.25;;;;;29.26;32.18;100799.00;5060711;28;45410;-69
2023/07/14 02:54:06;;;;;;;;;29.75;28.25;;;;;29.27;31.40;100797.13;5059628;28;45355;-70
2023/07/14 02:56:32;;;;;;;;;25.50;25.50;;;;;29.24;32.19;100797.50;5058775;28;45350;-68
2023/07/14 02:58:57;;;;;;;;;22.75;22.25;;;;;29.24;31.99;100792.91;5058769;28;45249;-68
2023/07/14 03:01:24;;;;;;;;;20.00;20.00;;;;;29.23;32.42;100787.69;5058573;28;45470;-68
2023/07/14 03:03:49;;;;;;;;;12.25;12.25;;;;;29.24;31.96;100779.38;5058161;28;46464;-67
2023/07/14 03:06:17;;;;;;;;;10.75;10.75;;;;;29.20;32.16;100779.94;5058264;28;45281;-68
2023/07/14 03:08:43;;;;;;;;;14.50;14.50;;;;;29.09;31.97;100778.47;5058374;28;45345;-70
2023/07/14 03:11:10;;;;;;;;;13.00;13.00;;;;;29.14;32.29;100793.13;5058463;28;45444;-71
2023/07/14 03:13:35;;;;;;;;;13.00;13.00;;;;;29.10;32.63;100782.84;5058001;28;45471;-69
2023/07/14 03:16:01;;;;;;;;;14.00;14.00;;;;;29.05;32.50;100774.44;5057983;28;45315;-67
2023/07/14 03:18:27;;;;;;;;;9.00;9.00;;;;;29.11;31.90;100771.00;5058400;28;45355;-70
2023/07/14 03:20:56;;;;;;;;;12.00;12.00;;;;;29.15;31.96;100775.03;5058117;28;45214;-68
2023/07/14 03:23:21;;;;;;;;;11.75;11.75;;;;;29.04;32.36;100767.31;5057902;28;45406;-69
2023/07/14 03:25:52;;;;;;;;;7.75;7.75;;;;;29.07;32.56;100758.84;5057725;28;45325;-67
2023/07/14 03:28:18;;;;;;;;;7.25;7.25;;;;;29.01;32.34;100758.53;5058100;28;45331;-69
2023/07/14 03:30:43;;;;;;;;;9.25;9.25;;;;;29.00;32.71;100747.88;5057996;28;45593;-68
2023/07/14 03:33:08;;;;;;;;;8.25;8.25;;;;;29.12;32.57;100764.56;5057026;28;68653;-67
2023/07/14 03:35:34;;;;;;;;;9.00;9.00;;;;;29.15;31.84;100762.31;5038896;28;62229;-68
2023/07/14 03:37:59;;;;;;;;;8.00;8.00;;;;;29.22;32.63;100770.59;5058153;28;45285;-68
2023/07/14 03:40:24;;;;;;;;;7.00;7.00;;;;;29.35;32.45;100761.00;5058086;28;45328;-69
2023/07/14 03:42:50;;;;;;;;;6.00;6.00;;;;;29.44;31.63;100758.09;5057681;28;49428;-69
2023/07/14 03:45:15;;;;;;;;;7.25;7.25;;;;;29.38;31.59;100750.66;5039412;28;61654;-69
2023/07/14 03:47:40;;;;;;;;;5.50;5.50;;;;;29.44;31.89;100754.53;5057836;28;45618;-68
2023/07/14 03:50:08;;;;;;;;;5.50;5.50;;;;;29.48;31.80;100744.19;5023063;28;45446;-69
2023/07/14 03:52:33;;;;;;;;;6.75;6.75;;;;;29.47;31.90;100747.91;5057663;28;46694;-68
2023/07/14 03:54:59;;;;;;;;;8.75;8.75;;;;;29.39;31.93;100729.84;5057921;28;45259;-68
2023/07/14 03:57:25;;;;;;;;;6.75;6.75;;;;;29.47;31.81;100735.19;5057782;28;45347;-70
2023/07/14 03:59:50;;;;;;;;;10.00;10.00;;;;;29.47;31.87;100735.19;5057497;28;45275;-67
2023/07/14 04:02:15;;;;;;;;;6.00;6.00;;;;;29.52;31.77;100730.06;5057358;28;50866;-67
2023/07/14 04:04:41;;;;;;;;;8.00;8.00;;;;;29.58;31.47;100733.91;5057718;28;45243;-69
2023/07/14 04:07:07;;;;;;;;;8.00;8.00;;;;;29.69;32.07;100740.75;5061514;28;45256;-70
2023/07/14 04:09:35;;;;;;;;;7.00;7.00;;;;;29.77;31.48;100740.69;5061697;28;45379;-68
2023/07/14 04:12:01;;;;;;;;;5.00;5.00;;;;;29.70;31.66;100731.63;5057924;28;46093;-67
2023/07/14 04:14:26;;;;;;;;;9.75;9.75;;;;;29.78;31.37;100731.53;5057402;28;45326;-68
2023/07/14 04:16:51;;;;;;;;;8.75;8.75;;;;;29.86;31.26;100741.44;5056986;28;61772;-69
2023/07/14 04:19:16;;;;;;;;;10.00;10.00;;;;;29.91;31.89;100728.16;5057986;28;45414;-68
2023/07/14 04:21:42;;;;;;;;;8.25;8.25;;;;;30.00;31.24;100729.78;5057108;28;62374;-67
2023/07/14 04:24:07;;;;;;;;;8.75;8.75;;;;;30.00;31.74;100727.06;5057226;28;48270;-67
2023/07/14 04:26:32;;;;;;;;;8.75;8.75;;;;;30.12;31.69;100732.03;5057686;28;45331;-68
2023/07/14 04:28:58;;;;;;;;;10.75;10.75;;;;;30.15;31.48;100729.78;5039597;28;45385;-69
2023/07/14 04:31:24;;;;;;;;;11.50;11.50;;;;;30.24;31.05;100737.84;5058217;28;46014;-67
2023/07/14 04:33:51;;;;;;;;;8.00;8.00;;;;;30.27;31.03;100724.75;5057031;28;45398;-68
2023/07/14 04:36:17;;;;;;;;;12.00;12.00;;;;;30.26;31.12;100723.06;5057138;28;45352;-68
2023/07/14 04:38:58;;;;;;;;;11.00;11.00;;;;;30.42;31.09;100724.72;5057047;28;45315;-71
2023/07/14 04:41:24;;;;;;;;;9.25;9.25;;;;;30.38;30.79;100712.56;5056968;28;45997;-68
2023/07/14 04:43:49;;;;;;;;;11.25;10.25;;;;;30.50;30.99;100726.50;5057134;28;45430;-67
2023/07/14 04:46:15;;;;;;;;;23.75;22.75;;;;;30.56;31.05;100720.28;5056722;28;49159;-69
2023/07/14 04:48:40;;;;;;;;;11.50;11.50;;;;;30.53;31.06;100708.97;5039466;28;45474;-68
2023/07/14 04:51:06;;;;;;;;;10.00;10.00;;;;;30.48;30.90;100700.56;5057537;28;66776;-70
2023/07/14 04:53:31;;;;;;;;;14.50;14.50;;;;;30.55;30.78;100701.47;5039785;28;45434;-69
2023/07/14 04:55:56;;;;;;;;;31.00;30.00;;;;;30.45;30.73;100699.09;5056806;28;58247;-69
2023/07/14 04:58:21;;;;;;;;;11.00;11.00;;;;;30.50;30.62;100712.06;5057685;28;45375;-69
2023/07/14 05:00:49;;;;;;;;;8.50;8.50;;;;;30.45;31.27;100697.19;5056491;28;49191;-70
2023/07/14 05:03:15;;;;;;;;;6.00;6.00;;;;;30.33;31.24;100685.16;5056821;28;45332;-70
2023/07/14 05:05:40;;;;;;;;;8.25;8.25;;;;;30.38;30.91;100677.28;5056593;28;45566;-69
2023/07/14 05:08:07;;;;;;;;;8.00;8.00;;;;;30.39;31.07;100672.72;5056909;28;45637;-69
2023/07/14 05:10:33;;;;;;;;;10.50;10.50;;;;;30.40;30.81;100669.78;5056252;28;46065;-69
2023/07/14 05:13:00;;;;;;;;;6.25;6.25;;;;;30.43;31.01;100657.72;5057032;28;45245;-69
2023/07/14 05:15:25;;;;;;;;;7.25;7.25;;;;;30.51;30.90;100654.03;5057821;28;45375;-69
2023/07/14 05:17:51;;;;;;;;;5.75;5.75;;;;;30.63;31.67;100652.53;5056782;28;45362;-69
2023/07/14 05:20:19;;;;;;;;;9.50;7.75;;;;;30.61;31.62;100635.59;5056356;28;46403;-66
2023/07/14 05:22:50;;;;;;;;;8.00;8.00;;;;;30.55;31.34;100625.47;5056125;28;45465;-69
2023/07/14 05:25:16;;;;;;;;;8.00;8.00;;;;;30.49;31.89;100632.53;5056521;28;45329;-69
2023/07/14 05:27:43;;;;;;;;;6.75;6.75;;;;;30.57;31.64;100626.13;5056807;28;45332;-67
2023/07/14 05:30:11;;;;;;;;;6.00;6.00;;;;;30.54;31.84;100602.09;5056139;28;45523;-67
2023/07/14 05:32:36;;;;;;;;;5.00;5.00;;;;;30.45;31.29;100599.50;5056401;28;45390;-68
2023/07/14 05:35:02;;;;;;;;;6.75;6.75;;;;;30.50;31.93;100617.06;5057340;28;45311;-68
2023/07/14 05:37:28;;;;;;;;;6.25;6.25;;;;;30.49;31.62;100609.97;5056878;28;45359;-67
2023/07/14 05:39:53;;;;;;;;;7.50;7.50;;;;;30.67;31.26;100623.13;5058046;28;46160;-67
2023/07/14 05:42:18;;;;;;;;;6.75;6.75;;;;;30.79;31.19;100632.44;5056574;28;63038;-67
2023/07/14 05:44:44;;;;;;;;;5.75;5.75;;;;;30.80;30.96;100611.56;5056100;28;45421;-67
2023/07/14 05:47:10;;;;;;;;;5.00;5.00;;;;;30.84;31.05;100626.44;5056886;28;45604;-68
2023/07/14 05:49:35;;;;;;;;;4.50;4.50;;;;;30.79;30.58;100626.19;5056342;28;46231;-69
2023/07/14 05:52:01;;;;;;;;;5.00;5.00;;;;;30.92;30.46;100625.44;5056026;28;45359;-69
2023/07/14 05:54:27;;;;;;;;;5.25;3.50;;;;;30.97;30.39;100634.69;5056129;28;45417;-69
2023/07/14 05:56:53;;;;;;;;;6.25;6.25;;;;;31.09;30.17;100631.44;5056056;28;45327;-69
2023/07/14 05:59:19;;;;;;;;;5.00;5.00;;;;;31.11;30.05;100618.50;5055763;28;47075;-69
2023/07/14 06:01:48;;;;;;;;;5.00;5.00;;;;;31.14;30.10;100624.38;5055444;28;45768;-71
2023/07/14 06:04:15;;;;;;;;;4.25;4.25;;;;;31.05;30.01;100617.41;5055548;28;45336;-69
2023/07/14 06:06:41;;;;;;;;;6.00;6.00;;;;;31.15;30.03;100623.34;5055861;28;45511;-69
2023/07/14 06:09:06;;;;;;;;;4.50;4.50;;;;;31.21;29.61;100613.59;5055696;28;46975;-70
2023/07/14 06:11:32;;;;;;;;;5.00;5.00;;;;;31.21;29.64;100591.00;5055507;28;45381;-69
2023/07/14 06:13:58;;;;;;;;;5.00;5.00;;;;;31.28;29.71;100594.63;5055591;28;45439;-69
2023/07/14 06:16:24;;;;;;;;;5.25;5.25;;;;;31.31;29.60;100616.00;5055695;28;45353;-70
2023/07/14 06:18:50;;;;;;;;;3.75;3.75;;;;;31.48;29.54;100617.34;5055181;28;46300;-69
2023/07/14 06:21:15;;;;;;;;;21.25;20.25;;;;;31.63;29.35;100613.66;5055750;28;45354;-68
2023/07/14 06:23:41;;;;;;;;;8.75;7.00;;;;;31.69;28.93;100612.88;5058063;28;45353;-66
2023/07/14 06:26:06;;;;;;;;;4.00;4.00;;;;;31.81;29.06;100624.06;5059468;28;45568;-67
2023/07/14 06:28:32;;;;;;;;;4.50;4.50;;;;;31.93;28.58;100623.47;5059111;28;46498;-66
2023/07/14 06:31:00;;;;;;;;;3.50;3.50;;;;;32.10;28.79;100626.66;5058867;28;49900;-68
2023/07/14 06:33:26;;;;;;;;;6.00;6.00;;;;;32.20;28.13;100633.41;5058909;28;45467;-69
2023/07/14 06:35:52;;;;;;;;;5.00;5.00;;;;;32.34;28.14;100623.44;5059235;28;45256;-67
2023/07/14 06:38:18;;;;;;;;;5.00;5.00;;;;;32.42;28.51;100613.41;5059170;28;46124;-70
2023/07/14 06:40:43;;;;;;;;;6.25;6.25;;;;;32.58;28.06;100593.97;5058966;28;45427;-67
2023/07/14 06:43:09;;;;;;;;;3.50;3.50;;;;;32.76;27.52;100593.34;5059055;28;45487;-67
2023/07/14 06:45:35;;;;;;;;;6.25;6.25;;;;;32.87;27.67;100581.00;5058898;28;45257;-67
2023/07/14 06:48:01;;;;;;;;;6.00;6.00;;;;;33.03;27.33;100587.94;5058757;28;46174;-68
2023/07/14 06:50:27;;;;;;;;;6.50;5.75;;;;;33.14;27.48;100591.88;5058525;28;45528;-68
2023/07/14 06:52:53;;;;;;;;;5.00;5.00;;;;;33.14;27.30;100593.78;5058392;28;45435;-68
2023/07/14 06:55:18;;;;;;;;;4.00;4.00;;;;;33.21;26.94;100594.63;5058810;28;45277;-68
2023/07/14 06:57:44;;;;;;;;;4.00;4.00;;;;;33.19;27.41;100597.53;5058342;28;46889;-69
2023/07/14 07:00:11;;;;;;;;;5.75;5.75;;;;;33.18;27.20;100595.03;5058631;28;45342;-68
2023/07/14 07:02:36;;;;;;;;;5.00;5.00;;;;;33.21;26.94;100581.81;5058554;28;45339;-66
2023/07/14 07:05:04;;;;;;;;;7.75;7.75;;;;;33.27;26.79;100593.78;5058326;28;45256;-68
2023/07/14 07:07:30;;;;;;;;;7.25;7.25;;;;;33.37;26.73;100582.41;5058277;28;46355;-67
2023/07/14 07:09:56;;;;;;;;;6.00;6.00;;;;;33.44;26.64;100579.72;5058175;28;45300;-69
2023/07/14 07:12:22;;;;;;;;;5.00;5.00;;;;;33.53;26.52;100569.41;5040216;28;45570;-68
2023/07/14 07:14:48;;;;;;;;;6.75;5.75;;;;;33.63;26.04;100578.81;5058184;28;45442;-68
2023/07/14 07:17:13;;;;;;;;;5.25;5.25;;;;;33.82;26.17;100567.22;5057958;28;45307;-69
2023/07/14 07:19:39;;;;;;;;;9.00;8.25;;;;;34.04;25.88;100567.78;5057749;28;58090;-68
2023/07/14 07:22:07;;;;;;;;;8.00;8.00;;;;;34.25;26.02;100552.09;5039815;28;45352;-68
2023/07/14 07:24:32;;;;;;;;;5.75;5.75;;;;;34.41;25.31;100559.75;5058054;28;45347;-68
2023/07/14 07:26:58;;;;;;;;;6.75;6.75;;;;;34.61;25.52;100545.16;5057617;28;46140;-69
2023/07/14 07:29:23;;;;;;;;;8.00;8.00;;;;;34.76;25.45;100558.47;5057981;28;45280;-69
2023/07/14 07:31:49;;;;;;;;;8.00;8.00;;;;;34.85;25.26;100554.41;5058072;28;45694;-68
2023/07/14 07:34:14;;;;;;;;;7.25;7.25;;;;;35.01;25.09;100549.44;5059855;28;45605;-68
2023/07/14 07:36:40;;;;;;;;;8.00;8.00;;;;;35.20;24.75;100545.66;5059964;28;47046;-67
2023/07/14 07:39:05;;;;;;;;;8.50;8.50;;;;;35.47;24.57;100548.09;5057744;28;45210;-68
2023/07/14 07:41:30;;;;;;;;;8.50;8.50;;;;;35.61;24.39;100545.25;5058003;28;45317;-68
2023/07/14 07:43:56;;;;;;;;;4.50;4.50;;;;;35.75;24.14;100546.75;5058026;28;45429;-68
2023/07/14 07:46:21;;;;;;;;;5.75;5.75;;;;;35.85;24.25;100543.44;5057248;28;46087;-68
2023/07/14 07:48:47;;;;;;;;;6.00;6.00;;;;;35.95;24.10;100553.84;5057456;28;45414;-69
2023/07/14 07:51:14;;;;;;;;;11.75;11.75;;;;;35.89;23.96;100552.88;5058131;28;45429;-69
2023/07/14 07:53:39;;;;;;;;;7.75;7.75;;;;;36.01;24.01;100544.75;5039798;28;45490;-67
2023/07/14 07:56:05;;;;;;;;;6.25;6.25;;;;;36.13;24.00;100538.47;5057188;28;47066;-69
2023/07/14 07:58:31;;;;;;;;;7.75;7.75;;;;;36.35;23.54;100519.59;5057472;28;45308;-69
2023/07/14 08:00:59;;;;;;;;;9.00;9.00;;;;;36.66;23.84;100523.13;5057556;28;45435;-69
2023/07/14 08:03:25;;;;;;;;;8.75;8.75;;;;;36.88;23.64;100522.53;5057657;28;45597;-67
2023/07/14 08:05:52;;;;;;;;;7.00;7.00;;;;;37.04;23.35;100521.81;5056901;28;45330;-68
2023/07/14 08:08:18;;;;;;;;;5.00;5.00;;;;;37.16;23.10;100510.84;5057142;28;45354;-68
2023/07/14 08:10:45;;;;;;;;;6.25;6.25;;;;;37.22;22.82;100509.06;5057547;28;45354;-69
2023/07/14 08:13:12;;;;;;;;;7.50;7.50;;;;;37.16;22.83;100508.09;5057628;28;45401;-67
2023/07/14 08:15:37;;;;;;;;;6.50;6.50;;;;;37.08;22.79;100506.56;5057471;28;45721;-71
2023/07/14 08:18:04;;;;;;;;;7.00;7.00;;;;;37.21;22.21;100499.16;5057691;28;45236;-71
2023/07/14 08:20:30;;;;;;;;;13.75;13.75;;;;;37.33;22.54;100499.97;5057322;28;45280;-70
2023/07/14 08:22:56;;;;;;;;;6.75;6.75;;;;;37.50;22.49;100499.25;5057356;28;45244;-68
2023/07/14 08:25:22;;;;;;;;;9.00;9.00;;;;;37.66;22.49;100509.44;5058849;28;46188;-69
2023/07/14 08:27:47;;;;;;;;;8.00;7.50;;;;;37.71;22.20;100506.78;5057102;28;45431;-68
2023/07/14 08:30:13;;;;;;;;;6.25;6.25;;;;;37.62;21.93;100508.25;5039289;28;45501;-69
2023/07/14 08:32:38;;;;;;;;;6.50;6.50;;;;;37.77;22.16;100509.63;5057482;28;45628;-69
2023/07/14 08:35:04;;;;;;;;;8.00;8.00;;;;;37.89;22.09;100515.06;5038358;28;47324;-71
2023/07/14 08:37:29;;;;;;;;;17.50;16.75;;;;;37.98;21.93;100497.16;5056720;28;45335;-70
2023/07/14 08:39:54;;;;;;;;;8.00;8.00;;;;;38.02;21.51;100497.47;5056492;28;51293;-70
2023/07/14 08:42:42;;;;;;;;;7.00;7.00;;;;;38.16;21.69;100496.06;5056479;28;55192;-69
2023/07/14 08:45:34;;;;;;;;;6.25;6.25;;;;;38.15;21.68;100499.91;5056261;28;45518;-69
2023/07/14 08:48:24;;;;;;;;;0.00;0.00;;;;;38.20;21.41;100486.28;5038364;28;45409;-67
2023/07/14 08:50:54;;;;;;;;;15.50;15.50;;;;;38.36;21.38;100483.78;5038366;28;45394;-69
2023/07/14 08:53:24;;;;;;;;;7.75;7.50;;;;;38.35;21.25;100471.94;5056534;28;45270;-68
2023/07/14 08:55:53;;;;;;;;;21.00;21.00;;;;;38.27;21.22;100454.00;5056450;28;46409;-69
2023/07/14 08:58:24;;;;;;;;;7.50;7.50;;;;;38.42;21.06;100458.09;5056651;28;45501;-69
2023/07/14 09:00:49;;;;;;;;;7.25;7.25;;;;;38.38;20.94;100454.16;5056184;28;45387;-70
2023/07/14 09:03:38;;;;;;;;;6.00;6.00;;;;;38.44;20.79;100455.91;5056171;28;45548;-69
2023/07/14 09:06:16;;;;;;;;;5.75;5.75;;;;;38.38;20.18;100443.97;5055754;28;47323;-68
2023/07/14 09:08:42;;;;;;;;;4.75;4.75;;;;;38.23;20.27;100441.00;5057462;28;45342;-67
2023/07/14 09:11:29;;;;;;;;;6.00;6.00;;;;;38.26;20.26;100437.75;5056767;28;45368;-69
2023/07/14 09:14:01;;;;;;;;;5.00;5.00;;;;;38.10;20.31;100432.00;5056401;28;45390;-69
2023/07/14 09:16:31;;;;;;;;;3.50;3.50;;;;;37.94;19.90;100427.31;5056204;28;46194;-70
2023/07/14 09:19:22;;;;;;;;;4.75;4.75;;;;;37.83;20.17;100424.41;5037747;28;45323;-69
2023/07/14 09:22:02;;;;;;;;;5.50;5.50;;;;;37.76;19.91;100420.13;5055924;28;45229;-70
2023/07/14 09:25:04;;;;;;;;;5.50;5.50;;;;;37.60;20.63;100424.50;5056250;28;45319;-68
2023/07/14 09:27:31;;;;;;;;;5.00;5.00;;;;;37.38;20.44;100425.19;5055637;28;46050;-70
2023/07/14 09:29:57;;;;;;;;;4.25;4.25;;;;;37.27;20.20;100413.19;5056062;28;45521;-70
2023/07/14 09:32:41;;;;;;;;;6.00;6.00;;;;;37.33;20.82;100408.63;5056250;28;45331;-69
2023/07/14 09:35:18;;;;;;;;;5.50;5.50;;;;;37.33;19.98;100404.00;5056146;28;45237;-67
2023/07/14 09:37:57;;;;;;;;;5.75;5.75;;;;;37.37;20.17;100402.41;5056462;28;46437;-68
2023/07/14 09:40:35;;;;;;;;;9.75;8.25;;;;;37.41;20.53;100400.00;5055552;28;45446;-71
2023/07/14 09:43:02;;;;;;;;;5.50;5.50;;;;;37.30;19.90;100404.47;5038902;28;45324;-70
2023/07/14 09:45:30;;;;;;;;;5.25;3.50;;;;;37.23;20.43;100398.31;5055807;28;45433;-67
2023/07/14 09:48:16;;;;;;;;;3.50;3.50;;;;;37.34;20.42;100393.84;5055523;28;46988;-69
2023/07/14 09:51:02;;;;;;;;;7.50;7.50;;;;;37.39;20.53;100386.53;5055244;28;45335;-69
2023/07/14 09:53:31;;;;;;;;;4.25;4.25;;;;;37.33;19.89;100376.56;5055721;28;45296;-70
2023/07/14 09:56:05;;;;;;;;;10.75;10.75;;;;;37.39;20.45;100378.31;5055696;28;45565;-68
2023/07/14 09:58:33;;;;;;;;;3.25;3.25;;;;;37.46;20.07;100375.41;5055516;28;46159;-70
2023/07/14 10:01:05;;;;;;;;;5.25;5.25;;;;;37.55;20.34;100375.88;5055828;28;45513;-69
2023/07/14 10:03:46;;;;;;;;;2.50;2.50;;;;;37.66;20.00;100365.94;5055892;28;45315;-68
2023/07/14 10:06:16;;;;;;;;;4.50;4.50;;;;;37.61;19.44;100363.91;5037975;28;45341;-70
2023/07/14 10:08:50;;;;;;;;;4.75;4.75;;;;;37.76;19.61;100357.03;5055456;28;46316;-69
2023/07/14 10:11:29;;;;;;;;;4.00;4.00;;;;;37.73;19.45;100350.13;5055493;28;45358;-70
2023/07/14 10:14:19;;;;;;;;;3.00;3.00;;;;;37.88;19.10;100335.00;5055522;28;45341;-72
2023/07/14 10:16:45;;;;;;;;;4.00;4.00;;;;;37.87;19.13;100342.38;5056713;28;45364;-69
2023/07/14 10:19:19;;;;;;;;;3.50;3.50;;;;;37.96;19.02;100332.66;5056563;28;45379;-71
2023/07/14 10:21:52;;;;;;;;;3.75;3.75;;;;;38.02;19.23;100330.00;5056996;28;45548;-69
2023/07/14 10:24:18;;;;;;;;;4.75;4.75;;;;;37.93;18.74;100327.66;5037047;28;45271;-68
2023/07/14 10:27:08;;;;;;;;;3.00;3.00;;;;;38.00;18.73;100317.34;5038054;28;45981;-71
2023/07/14 10:29:48;;;;;;;;;6.50;6.50;;;;;38.04;18.75;100325.09;5055458;28;45401;-69
2023/07/14 10:32:26;;;;;;;;;4.75;4.75;;;;;37.93;19.06;100313.13;5055490;28;45364;-69
2023/07/14 10:34:56;;;;;;;;;5.00;5.00;;;;;38.05;18.91;100316.63;5055740;28;45344;-70
2023/07/14 10:37:28;;;;;;;;;5.75;5.75;;;;;38.26;18.99;100308.66;5055828;28;45383;-68
2023/07/14 10:40:17;;;;;;;;;6.00;6.00;;;;;38.52;18.99;100312.63;5056302;28;46346;-70
2023/07/14 10:42:54;;;;;;;;;4.00;4.00;;;;;38.67;18.37;100302.91;5057081;28;45352;-69
2023/07/14 10:45:20;;;;;;;;;4.25;4.25;;;;;38.84;18.92;100289.91;5055276;28;45316;-70
2023/07/14 10:47:54;;;;;;;;;4.50;4.50;;;;;39.18;18.63;100299.06;5037717;28;45561;-69
2023/07/14 10:50:32;;;;;;;;;5.00;5.00;;;;;39.34;18.24;100297.28;5056060;28;45441;-72
2023/07/14 10:53:12;;;;;;;;;5.75;5.75;;;;;39.23;18.23;100285.34;5055125;28;45360;-70
2023/07/14 10:55:42;;;;;;;;;5.00;5.00;;;;;39.27;18.19;100284.59;5036415;28;45260;-69
2023/07/14 10:58:15;;;;;;;;;5.50;5.50;;;;;39.53;18.33;100265.56;5055005;28;45414;-70
2023/07/14 11:00:51;;;;;;;;;6.00;6.00;;;;;39.64;18.29;100266.47;5054625;28;45775;-69
2023/07/14 11:03:35;;;;;;;;;5.25;5.25;;;;;39.76;18.18;100260.75;5054862;28;45479;-73
2023/07/14 11:06:18;;;;;;;;;7.00;7.00;;;;;39.76;18.25;100243.44;5036294;28;45327;-68
2023/07/14 11:08:50;;;;;;;;;6.75;6.75;;;;;39.73;18.28;100242.88;5055770;28;45238;-68
2023/07/14 11:11:37;;;;;;;;;5.00;5.00;;;;;39.83;18.48;100246.81;5059282;28;46061;-68
2023/07/14 11:14:34;;;;;;;;;6.25;6.25;;;;;40.17;18.38;100235.41;5058203;28;45358;-72
2023/07/14 11:17:30;;;;;;;;;5.50;5.50;;;;;40.37;18.26;100233.88;5058190;28;45290;-70
2023/07/14 11:20:01;;;;;;;;;3.00;3.00;;;;;40.48;17.51;100240.25;5058670;28;45248;-70
2023/07/14 11:22:49;;;;;;;;;3.25;3.25;;;;;40.46;17.95;100221.25;5057787;28;45495;-70
2023/07/14 11:25:30;;;;;;;;;4.00;4.00;;;;;40.45;17.31;100222.34;5057559;28;45345;-68
2023/07/14 11:28:27;;;;;;;;;6.25;6.25;;;;;40.37;17.95;100222.88;5058184;28;45356;-69
2023/07/14 11:30:57;;;;;;;;;3.75;3.75;;;;;40.41;17.17;100213.78;5057740;28;45612;-68